sensor_id;sensor_type;location;lat;lon;timestamp;P1;durP1;ratioP1;P2;durP2;ratioP2
11305;SDS011;5708;50.660;6.778;2023-04-06T00:02:20;20.10;;;9.37;;
11305;SDS011;5708;50.660;6.778;2023-04-06T00:04:46;18.23;;;9.48;;
11305;SDS011;5708;50.660;6.778;2023-04-06T00:07:11;20.33;;;10.10;;
11305;SDS011;5708;50.660;6.778;2023-04-06T00:09:36;22.57;;;9.50;;
11305;SDS011;5708;50.660;6.778;2023-04-06T00:12:01;18.07;;;9.70;;
11305;SDS011;5708;50.660;6.778;2023-04-06T00:14:26;19.92;;;9.23;;
11305;SDS011;5708;50.660;6.778;2023-04-06T00:16:52;22.20;;;9.73;;
11305;SDS011;5708;50.660;6.778;2023-04-06T00:19:17;21.75;;;9.98;;
11305;SDS011;5708;50.660;6.778;2023-04-06T00:21:42;18.90;;;9.32;;
11305;SDS011;5708;50.660;6.778;2023-04-06T00:24:07;19.38;;;9.63;;
11305;SDS011;5708;50.660;6.778;2023-04-06T00:26:33;18.63;;;9.37;;
11305;SDS011;5708;50.660;6.778;2023-04-06T00:28:58;19.03;;;9.13;;
11305;SDS011;5708;50.660;6.778;2023-04-06T00:31:24;19.08;;;9.57;;
11305;SDS011;5708;50.660;6.778;2023-04-06T00:33:49;20.27;;;10.18;;
11305;SDS011;5708;50.660;6.778;2023-04-06T00:36:14;18.05;;;9.43;;
11305;SDS011;5708;50.660;6.778;2023-04-06T00:38:40;18.42;;;9.95;;
11305;SDS011;5708;50.660;6.778;2023-04-06T00:41:05;19.52;;;9.30;;
11305;SDS011;5708;50.660;6.778;2023-04-06T00:43:31;15.80;;;8.80;;
11305;SDS011;5708;50.660;6.778;2023-04-06T00:45:56;25.45;;;10.35;;
11305;SDS011;5708;50.660;6.778;2023-04-06T00:48:21;23.67;;;9.70;;
11305;SDS011;5708;50.660;6.778;2023-04-06T00:50:46;19.88;;;9.77;;
11305;SDS011;5708;50.660;6.778;2023-04-06T00:53:12;17.80;;;9.07;;
11305;SDS011;5708;50.660;6.778;2023-04-06T00:55:38;18.27;;;9.13;;
11305;SDS011;5708;50.660;6.778;2023-04-06T00:58:03;18.52;;;9.05;;
11305;SDS011;5708;50.660;6.778;2023-04-06T01:00:29;23.17;;;10.43;;
11305;SDS011;5708;50.660;6.778;2023-04-06T01:02:54;17.77;;;9.48;;
11305;SDS011;5708;50.660;6.778;2023-04-06T01:05:19;17.63;;;9.77;;
11305;SDS011;5708;50.660;6.778;2023-04-06T01:07:45;17.77;;;9.55;;
11305;SDS011;5708;50.660;6.778;2023-04-06T01:10:10;20.40;;;9.10;;
11305;SDS011;5708;50.660;6.778;2023-04-06T01:12:35;19.15;;;9.30;;
11305;SDS011;5708;50.660;6.778;2023-04-06T01:15:02;18.98;;;9.20;;
11305;SDS011;5708;50.660;6.778;2023-04-06T01:17:27;16.23;;;9.02;;
11305;SDS011;5708;50.660;6.778;2023-04-06T01:19:53;20.20;;;9.10;;
11305;SDS011;5708;50.660;6.778;2023-04-06T01:22:19;21.83;;;9.50;;
11305;SDS011;5708;50.660;6.778;2023-04-06T01:24:44;20.33;;;10.57;;
11305;SDS011;5708;50.660;6.778;2023-04-06T01:27:10;17.13;;;9.27;;
11305;SDS011;5708;50.660;6.778;2023-04-06T01:29:35;18.15;;;9.30;;
11305;SDS011;5708;50.660;6.778;2023-04-06T01:32:00;22.80;;;9.97;;
11305;SDS011;5708;50.660;6.778;2023-04-06T01:34:26;17.83;;;9.50;;
11305;SDS011;5708;50.660;6.778;2023-04-06T01:36:51;19.25;;;9.95;;
11305;SDS011;5708;50.660;6.778;2023-04-06T01:39:16;19.33;;;10.32;;
11305;SDS011;5708;50.660;6.778;2023-04-06T01:41:41;18.52;;;10.25;;
11305;SDS011;5708;50.660;6.778;2023-04-06T01:44:07;19.20;;;9.27;;
11305;SDS011;5708;50.660;6.778;2023-04-06T01:46:32;19.40;;;9.30;;
11305;SDS011;5708;50.660;6.778;2023-04-06T01:48:57;18.58;;;9.48;;
11305;SDS011;5708;50.660;6.778;2023-04-06T01:51:22;19.42;;;10.27;;
11305;SDS011;5708;50.660;6.778;2023-04-06T01:53:49;21.55;;;10.32;;
11305;SDS011;5708;50.660;6.778;2023-04-06T01:56:15;19.95;;;9.88;;
11305;SDS011;5708;50.660;6.778;2023-04-06T01:58:40;20.73;;;10.57;;
11305;SDS011;5708;50.660;6.778;2023-04-06T02:01:05;20.67;;;10.40;;
11305;SDS011;5708;50.660;6.778;2023-04-06T02:03:30;23.85;;;11.05;;
11305;SDS011;5708;50.660;6.778;2023-04-06T02:05:56;20.83;;;10.48;;
11305;SDS011;5708;50.660;6.778;2023-04-06T02:08:21;18.83;;;9.77;;
11305;SDS011;5708;50.660;6.778;2023-04-06T02:10:46;20.60;;;10.30;;
11305;SDS011;5708;50.660;6.778;2023-04-06T02:13:12;21.73;;;10.90;;
11305;SDS011;5708;50.660;6.778;2023-04-06T02:15:37;18.87;;;9.77;;
11305;SDS011;5708;50.660;6.778;2023-04-06T02:18:02;23.57;;;9.77;;
11305;SDS011;5708;50.660;6.778;2023-04-06T02:20:27;20.93;;;10.63;;
11305;SDS011;5708;50.660;6.778;2023-04-06T02:22:53;22.33;;;10.83;;
11305;SDS011;5708;50.660;6.778;2023-04-06T02:25:18;22.10;;;10.23;;
11305;SDS011;5708;50.660;6.778;2023-04-06T02:27:43;20.00;;;11.20;;
11305;SDS011;5708;50.660;6.778;2023-04-06T02:30:08;20.17;;;9.63;;
11305;SDS011;5708;50.660;6.778;2023-04-06T02:32:34;19.00;;;10.32;;
11305;SDS011;5708;50.660;6.778;2023-04-06T02:34:59;20.58;;;10.07;;
11305;SDS011;5708;50.660;6.778;2023-04-06T02:37:25;21.25;;;10.45;;
11305;SDS011;5708;50.660;6.778;2023-04-06T02:39:50;18.92;;;10.32;;
11305;SDS011;5708;50.660;6.778;2023-04-06T02:42:16;20.90;;;10.93;;
11305;SDS011;5708;50.660;6.778;2023-04-06T02:44:41;18.50;;;9.80;;
11305;SDS011;5708;50.660;6.778;2023-04-06T02:47:07;19.23;;;9.63;;
11305;SDS011;5708;50.660;6.778;2023-04-06T02:49:32;18.73;;;9.90;;
11305;SDS011;5708;50.660;6.778;2023-04-06T02:51:57;23.60;;;10.00;;
11305;SDS011;5708;50.660;6.778;2023-04-06T02:54:22;19.42;;;10.20;;
11305;SDS011;5708;50.660;6.778;2023-04-06T02:56:47;20.50;;;10.43;;
11305;SDS011;5708;50.660;6.778;2023-04-06T02:59:13;19.97;;;10.07;;
11305;SDS011;5708;50.660;6.778;2023-04-06T03:01:38;22.75;;;10.70;;
11305;SDS011;5708;50.660;6.778;2023-04-06T03:04:03;20.02;;;9.85;;
11305;SDS011;5708;50.660;6.778;2023-04-06T03:06:28;20.23;;;10.37;;
11305;SDS011;5708;50.660;6.778;2023-04-06T03:08:55;19.95;;;10.50;;
11305;SDS011;5708;50.660;6.778;2023-04-06T03:11:20;22.92;;;10.15;;
11305;SDS011;5708;50.660;6.778;2023-04-06T03:13:45;22.58;;;10.00;;
11305;SDS011;5708;50.660;6.778;2023-04-06T03:16:11;21.42;;;10.30;;
11305;SDS011;5708;50.660;6.778;2023-04-06T03:18:36;19.77;;;10.23;;
11305;SDS011;5708;50.660;6.778;2023-04-06T03:21:01;19.25;;;10.55;;
11305;SDS011;5708;50.660;6.778;2023-04-06T03:23:26;17.65;;;9.18;;
11305;SDS011;5708;50.660;6.778;2023-04-06T03:25:52;19.83;;;10.80;;
11305;SDS011;5708;50.660;6.778;2023-04-06T03:28:17;20.35;;;10.15;;
11305;SDS011;5708;50.660;6.778;2023-04-06T03:30:42;20.90;;;10.75;;
11305;SDS011;5708;50.660;6.778;2023-04-06T03:33:07;20.08;;;10.40;;
11305;SDS011;5708;50.660;6.778;2023-04-06T03:35:33;21.27;;;10.18;;
11305;SDS011;5708;50.660;6.778;2023-04-06T03:37:58;22.33;;;10.23;;
11305;SDS011;5708;50.660;6.778;2023-04-06T03:40:23;20.73;;;10.55;;
11305;SDS011;5708;50.660;6.778;2023-04-06T03:42:48;18.70;;;9.93;;
11305;SDS011;5708;50.660;6.778;2023-04-06T03:45:14;21.58;;;11.18;;
11305;SDS011;5708;50.660;6.778;2023-04-06T03:47:39;20.42;;;11.07;;
11305;SDS011;5708;50.660;6.778;2023-04-06T03:50:05;20.75;;;10.80;;
11305;SDS011;5708;50.660;6.778;2023-04-06T03:52:31;21.90;;;10.32;;
11305;SDS011;5708;50.660;6.778;2023-04-06T03:54:56;20.63;;;9.95;;
11305;SDS011;5708;50.660;6.778;2023-04-06T03:57:21;20.93;;;10.27;;
11305;SDS011;5708;50.660;6.778;2023-04-06T03:59:46;21.30;;;10.47;;
11305;SDS011;5708;50.660;6.778;2023-04-06T04:02:12;24.57;;;10.83;;
11305;SDS011;5708;50.660;6.778;2023-04-06T04:04:37;21.07;;;11.27;;
11305;SDS011;5708;50.660;6.778;2023-04-06T04:07:02;22.20;;;10.65;;
11305;SDS011;5708;50.660;6.778;2023-04-06T04:09:27;19.03;;;10.87;;
11305;SDS011;5708;50.660;6.778;2023-04-06T04:11:53;19.90;;;10.43;;
11305;SDS011;5708;50.660;6.778;2023-04-06T04:14:18;22.53;;;11.83;;
11305;SDS011;5708;50.660;6.778;2023-04-06T04:16:43;27.53;;;10.27;;
11305;SDS011;5708;50.660;6.778;2023-04-06T04:19:08;23.65;;;10.75;;
11305;SDS011;5708;50.660;6.778;2023-04-06T04:21:34;21.48;;;10.93;;
11305;SDS011;5708;50.660;6.778;2023-04-06T04:23:59;21.10;;;10.93;;
11305;SDS011;5708;50.660;6.778;2023-04-06T04:26:24;17.87;;;9.87;;
11305;SDS011;5708;50.660;6.778;2023-04-06T04:28:49;21.08;;;11.30;;
11305;SDS011;5708;50.660;6.778;2023-04-06T04:31:15;24.23;;;10.85;;
11305;SDS011;5708;50.660;6.778;2023-04-06T04:33:43;19.83;;;10.90;;
11305;SDS011;5708;50.660;6.778;2023-04-06T04:36:08;21.73;;;10.38;;
11305;SDS011;5708;50.660;6.778;2023-04-06T04:38:35;21.27;;;9.90;;
11305;SDS011;5708;50.660;6.778;2023-04-06T04:41:00;19.92;;;11.05;;
11305;SDS011;5708;50.660;6.778;2023-04-06T04:43:25;24.33;;;10.85;;
11305;SDS011;5708;50.660;6.778;2023-04-06T04:45:51;23.43;;;11.07;;
11305;SDS011;5708;50.660;6.778;2023-04-06T04:48:17;18.52;;;10.05;;
11305;SDS011;5708;50.660;6.778;2023-04-06T04:50:42;20.67;;;10.20;;
11305;SDS011;5708;50.660;6.778;2023-04-06T04:53:07;24.70;;;10.88;;
11305;SDS011;5708;50.660;6.778;2023-04-06T04:55:33;22.20;;;10.60;;
11305;SDS011;5708;50.660;6.778;2023-04-06T04:57:58;24.88;;;10.55;;
11305;SDS011;5708;50.660;6.778;2023-04-06T05:00:23;21.47;;;10.63;;
11305;SDS011;5708;50.660;6.778;2023-04-06T05:02:48;21.57;;;10.83;;
11305;SDS011;5708;50.660;6.778;2023-04-06T05:05:14;22.10;;;10.02;;
11305;SDS011;5708;50.660;6.778;2023-04-06T05:07:39;23.45;;;10.25;;
11305;SDS011;5708;50.660;6.778;2023-04-06T05:10:04;21.20;;;10.80;;
11305;SDS011;5708;50.660;6.778;2023-04-06T05:12:30;19.10;;;10.73;;
11305;SDS011;5708;50.660;6.778;2023-04-06T05:14:55;24.02;;;11.55;;
11305;SDS011;5708;50.660;6.778;2023-04-06T05:17:20;20.90;;;10.87;;
11305;SDS011;5708;50.660;6.778;2023-04-06T05:19:45;19.70;;;10.30;;
11305;SDS011;5708;50.660;6.778;2023-04-06T05:22:11;22.08;;;11.02;;
11305;SDS011;5708;50.660;6.778;2023-04-06T05:24:39;20.27;;;10.38;;
11305;SDS011;5708;50.660;6.778;2023-04-06T05:27:05;23.30;;;10.85;;
11305;SDS011;5708;50.660;6.778;2023-04-06T05:29:33;18.55;;;10.80;;
11305;SDS011;5708;50.660;6.778;2023-04-06T05:31:58;22.33;;;11.10;;
11305;SDS011;5708;50.660;6.778;2023-04-06T05:34:23;21.63;;;11.48;;
11305;SDS011;5708;50.660;6.778;2023-04-06T05:36:48;23.48;;;12.35;;
11305;SDS011;5708;50.660;6.778;2023-04-06T05:39:14;20.60;;;10.40;;
11305;SDS011;5708;50.660;6.778;2023-04-06T05:41:39;21.13;;;11.50;;
11305;SDS011;5708;50.660;6.778;2023-04-06T05:44:05;23.80;;;11.25;;
11305;SDS011;5708;50.660;6.778;2023-04-06T05:46:30;19.03;;;10.77;;
11305;SDS011;5708;50.660;6.778;2023-04-06T05:48:55;34.37;;;16.67;;
11305;SDS011;5708;50.660;6.778;2023-04-06T05:51:21;31.90;;;17.00;;
11305;SDS011;5708;50.660;6.778;2023-04-06T05:53:46;25.67;;;15.17;;
11305;SDS011;5708;50.660;6.778;2023-04-06T05:56:11;22.77;;;13.07;;
11305;SDS011;5708;50.660;6.778;2023-04-06T05:58:36;23.75;;;13.52;;
11305;SDS011;5708;50.660;6.778;2023-04-06T06:01:05;24.40;;;12.70;;
11305;SDS011;5708;50.660;6.778;2023-04-06T06:03:30;23.58;;;11.20;;
11305;SDS011;5708;50.660;6.778;2023-04-06T06:06:01;22.65;;;11.20;;
11305;SDS011;5708;50.660;6.778;2023-04-06T06:08:27;21.35;;;11.15;;
11305;SDS011;5708;50.660;6.778;2023-04-06T06:10:52;20.35;;;11.27;;
11305;SDS011;5708;50.660;6.778;2023-04-06T06:13:18;23.77;;;11.50;;
11305;SDS011;5708;50.660;6.778;2023-04-06T06:15:43;22.05;;;11.68;;
11305;SDS011;5708;50.660;6.778;2023-04-06T06:18:08;21.13;;;11.00;;
11305;SDS011;5708;50.660;6.778;2023-04-06T06:20:33;18.97;;;10.23;;
11305;SDS011;5708;50.660;6.778;2023-04-06T06:22:59;20.90;;;11.00;;
11305;SDS011;5708;50.660;6.778;2023-04-06T06:25:24;18.90;;;10.00;;
11305;SDS011;5708;50.660;6.778;2023-04-06T06:27:49;17.63;;;9.65;;
11305;SDS011;5708;50.660;6.778;2023-04-06T06:30:15;21.02;;;10.55;;
11305;SDS011;5708;50.660;6.778;2023-04-06T06:32:40;24.27;;;10.35;;
11305;SDS011;5708;50.660;6.778;2023-04-06T06:35:05;18.48;;;9.95;;
11305;SDS011;5708;50.660;6.778;2023-04-06T06:37:30;20.05;;;10.07;;
11305;SDS011;5708;50.660;6.778;2023-04-06T06:39:56;15.50;;;9.07;;
11305;SDS011;5708;50.660;6.778;2023-04-06T06:42:21;15.25;;;9.07;;
11305;SDS011;5708;50.660;6.778;2023-04-06T06:44:46;18.13;;;9.67;;
11305;SDS011;5708;50.660;6.778;2023-04-06T06:47:11;19.02;;;9.85;;
11305;SDS011;5708;50.660;6.778;2023-04-06T06:49:37;15.43;;;9.77;;
11305;SDS011;5708;50.660;6.778;2023-04-06T06:52:02;18.47;;;9.77;;
11305;SDS011;5708;50.660;6.778;2023-04-06T06:54:27;17.35;;;10.45;;
11305;SDS011;5708;50.660;6.778;2023-04-06T06:56:52;21.13;;;9.93;;
11305;SDS011;5708;50.660;6.778;2023-04-06T06:59:19;18.88;;;10.57;;
11305;SDS011;5708;50.660;6.778;2023-04-06T07:01:45;16.58;;;10.02;;
11305;SDS011;5708;50.660;6.778;2023-04-06T07:04:10;17.43;;;9.57;;
11305;SDS011;5708;50.660;6.778;2023-04-06T07:06:36;17.63;;;10.07;;
11305;SDS011;5708;50.660;6.778;2023-04-06T07:09:01;19.58;;;10.43;;
11305;SDS011;5708;50.660;6.778;2023-04-06T07:11:28;18.33;;;10.02;;
11305;SDS011;5708;50.660;6.778;2023-04-06T07:13:53;20.95;;;9.90;;
11305;SDS011;5708;50.660;6.778;2023-04-06T07:16:18;16.48;;;9.25;;
11305;SDS011;5708;50.660;6.778;2023-04-06T07:18:43;20.17;;;9.73;;
11305;SDS011;5708;50.660;6.778;2023-04-06T07:21:10;19.13;;;10.18;;
11305;SDS011;5708;50.660;6.778;2023-04-06T07:23:38;19.90;;;9.35;;
11305;SDS011;5708;50.660;6.778;2023-04-06T07:26:03;22.00;;;10.07;;
11305;SDS011;5708;50.660;6.778;2023-04-06T07:28:29;18.23;;;9.55;;
11305;SDS011;5708;50.660;6.778;2023-04-06T07:30:58;18.52;;;10.30;;
11305;SDS011;5708;50.660;6.778;2023-04-06T07:33:23;17.95;;;9.88;;
11305;SDS011;5708;50.660;6.778;2023-04-06T07:35:48;17.70;;;9.13;;
11305;SDS011;5708;50.660;6.778;2023-04-06T07:38:13;18.37;;;9.57;;
11305;SDS011;5708;50.660;6.778;2023-04-06T07:40:39;19.17;;;9.17;;
11305;SDS011;5708;50.660;6.778;2023-04-06T07:43:04;21.88;;;9.95;;
11305;SDS011;5708;50.660;6.778;2023-04-06T07:45:29;18.10;;;10.07;;
11305;SDS011;5708;50.660;6.778;2023-04-06T07:47:54;18.67;;;9.93;;
11305;SDS011;5708;50.660;6.778;2023-04-06T07:50:20;17.90;;;9.27;;
11305;SDS011;5708;50.660;6.778;2023-04-06T07:52:45;19.67;;;9.63;;
11305;SDS011;5708;50.660;6.778;2023-04-06T07:55:10;18.60;;;9.77;;
11305;SDS011;5708;50.660;6.778;2023-04-06T07:57:36;18.10;;;9.38;;
11305;SDS011;5708;50.660;6.778;2023-04-06T08:00:01;20.70;;;10.03;;
11305;SDS011;5708;50.660;6.778;2023-04-06T08:02:26;19.40;;;10.33;;
11305;SDS011;5708;50.660;6.778;2023-04-06T08:04:51;19.30;;;9.52;;
11305;SDS011;5708;50.660;6.778;2023-04-06T08:07:17;19.07;;;9.50;;
11305;SDS011;5708;50.660;6.778;2023-04-06T08:09:42;17.83;;;9.40;;
11305;SDS011;5708;50.660;6.778;2023-04-06T08:12:07;19.10;;;9.48;;
11305;SDS011;5708;50.660;6.778;2023-04-06T08:14:32;20.70;;;9.70;;
11305;SDS011;5708;50.660;6.778;2023-04-06T08:16:57;18.97;;;9.07;;
11305;SDS011;5708;50.660;6.778;2023-04-06T08:19:23;19.40;;;9.37;;
11305;SDS011;5708;50.660;6.778;2023-04-06T08:21:48;17.57;;;9.27;;
11305;SDS011;5708;50.660;6.778;2023-04-06T08:24:13;19.98;;;9.93;;
11305;SDS011;5708;50.660;6.778;2023-04-06T08:26:39;17.23;;;9.13;;
11305;SDS011;5708;50.660;6.778;2023-04-06T08:29:04;17.58;;;9.48;;
11305;SDS011;5708;50.660;6.778;2023-04-06T08:31:32;18.52;;;9.57;;
11305;SDS011;5708;50.660;6.778;2023-04-06T08:33:57;24.17;;;12.23;;
11305;SDS011;5708;50.660;6.778;2023-04-06T08:36:23;18.67;;;10.30;;
11305;SDS011;5708;50.660;6.778;2023-04-06T08:38:48;18.83;;;9.55;;
11305;SDS011;5708;50.660;6.778;2023-04-06T08:41:14;18.52;;;8.85;;
11305;SDS011;5708;50.660;6.778;2023-04-06T08:43:48;19.42;;;9.98;;
11305;SDS011;5708;50.660;6.778;2023-04-06T08:46:14;19.60;;;9.48;;
11305;SDS011;5708;50.660;6.778;2023-04-06T08:48:40;18.45;;;9.60;;
11305;SDS011;5708;50.660;6.778;2023-04-06T08:51:05;19.45;;;9.68;;
11305;SDS011;5708;50.660;6.778;2023-04-06T08:53:31;18.33;;;9.40;;
11305;SDS011;5708;50.660;6.778;2023-04-06T08:55:56;16.00;;;8.68;;
11305;SDS011;5708;50.660;6.778;2023-04-06T08:58:22;19.20;;;9.35;;
11305;SDS011;5708;50.660;6.778;2023-04-06T09:00:48;19.90;;;9.40;;
11305;SDS011;5708;50.660;6.778;2023-04-06T09:03:14;16.13;;;8.90;;
11305;SDS011;5708;50.660;6.778;2023-04-06T09:05:40;16.83;;;9.13;;
11305;SDS011;5708;50.660;6.778;2023-04-06T09:08:05;22.17;;;9.87;;
11305;SDS011;5708;50.660;6.778;2023-04-06T09:10:30;20.58;;;9.90;;
11305;SDS011;5708;50.660;6.778;2023-04-06T09:13:04;18.77;;;9.77;;
11305;SDS011;5708;50.660;6.778;2023-04-06T09:15:29;15.63;;;9.13;;
11305;SDS011;5708;50.660;6.778;2023-04-06T09:17:54;18.50;;;9.53;;
11305;SDS011;5708;50.660;6.778;2023-04-06T09:20:23;17.75;;;9.30;;
11305;SDS011;5708;50.660;6.778;2023-04-06T09:22:51;18.20;;;9.43;;
11305;SDS011;5708;50.660;6.778;2023-04-06T09:25:20;16.97;;;9.10;;
11305;SDS011;5708;50.660;6.778;2023-04-06T09:27:46;22.30;;;9.90;;
11305;SDS011;5708;50.660;6.778;2023-04-06T09:30:11;20.17;;;9.73;;
11305;SDS011;5708;50.660;6.778;2023-04-06T09:32:52;19.35;;;10.25;;
11305;SDS011;5708;50.660;6.778;2023-04-06T09:35:18;18.00;;;9.60;;
11305;SDS011;5708;50.660;6.778;2023-04-06T09:37:45;17.98;;;9.30;;
11305;SDS011;5708;50.660;6.778;2023-04-06T09:40:11;18.23;;;9.85;;
11305;SDS011;5708;50.660;6.778;2023-04-06T09:42:36;19.75;;;10.68;;
11305;SDS011;5708;50.660;6.778;2023-04-06T09:45:02;18.55;;;9.85;;
11305;SDS011;5708;50.660;6.778;2023-04-06T09:47:28;18.48;;;9.95;;
11305;SDS011;5708;50.660;6.778;2023-04-06T09:49:55;23.77;;;11.70;;
11305;SDS011;5708;50.660;6.778;2023-04-06T09:52:20;18.55;;;10.30;;
11305;SDS011;5708;50.660;6.778;2023-04-06T09:54:46;18.30;;;9.98;;
11305;SDS011;5708;50.660;6.778;2023-04-06T09:57:25;19.13;;;9.98;;
11305;SDS011;5708;50.660;6.778;2023-04-06T09:59:54;23.52;;;10.40;;
11305;SDS011;5708;50.660;6.778;2023-04-06T10:04:59;21.92;;;10.98;;
11305;SDS011;5708;50.660;6.778;2023-04-06T10:07:26;18.75;;;9.68;;
11305;SDS011;5708;50.660;6.778;2023-04-06T10:09:51;21.48;;;11.30;;
11305;SDS011;5708;50.660;6.778;2023-04-06T10:12:18;18.92;;;10.25;;
11305;SDS011;5708;50.660;6.778;2023-04-06T10:14:43;20.80;;;10.70;;
11305;SDS011;5708;50.660;6.778;2023-04-06T10:17:08;19.58;;;10.68;;
11305;SDS011;5708;50.660;6.778;2023-04-06T10:19:37;21.10;;;11.10;;
11305;SDS011;5708;50.660;6.778;2023-04-06T10:22:04;20.67;;;11.10;;
11305;SDS011;5708;50.660;6.778;2023-04-06T10:24:30;19.70;;;10.65;;
11305;SDS011;5708;50.660;6.778;2023-04-06T10:27:02;19.40;;;10.83;;
11305;SDS011;5708;50.660;6.778;2023-04-06T10:29:28;19.95;;;10.68;;
11305;SDS011;5708;50.660;6.778;2023-04-06T10:31:53;24.97;;;11.37;;
11305;SDS011;5708;50.660;6.778;2023-04-06T10:34:20;19.63;;;11.18;;
11305;SDS011;5708;50.660;6.778;2023-04-06T10:36:45;25.17;;;12.05;;
11305;SDS011;5708;50.660;6.778;2023-04-06T10:39:11;22.90;;;11.43;;
11305;SDS011;5708;50.660;6.778;2023-04-06T10:41:40;19.40;;;10.85;;
11305;SDS011;5708;50.660;6.778;2023-04-06T10:44:05;21.48;;;11.73;;
11305;SDS011;5708;50.660;6.778;2023-04-06T10:46:33;18.02;;;10.40;;
11305;SDS011;5708;50.660;6.778;2023-04-06T10:49:11;20.85;;;11.32;;
11305;SDS011;5708;50.660;6.778;2023-04-06T10:51:38;19.80;;;11.30;;
11305;SDS011;5708;50.660;6.778;2023-04-06T10:54:03;23.88;;;11.20;;
11305;SDS011;5708;50.660;6.778;2023-04-06T10:56:28;18.65;;;10.27;;
11305;SDS011;5708;50.660;6.778;2023-04-06T10:58:54;18.20;;;10.10;;
11305;SDS011;5708;50.660;6.778;2023-04-06T11:01:23;24.58;;;10.43;;
11305;SDS011;5708;50.660;6.778;2023-04-06T11:03:50;21.00;;;9.55;;
11305;SDS011;5708;50.660;6.778;2023-04-06T11:06:22;18.33;;;9.73;;
11305;SDS011;5708;50.660;6.778;2023-04-06T11:08:48;18.10;;;10.07;;
11305;SDS011;5708;50.660;6.778;2023-04-06T11:11:14;19.02;;;9.73;;
11305;SDS011;5708;50.660;6.778;2023-04-06T11:13:41;17.80;;;10.05;;
11305;SDS011;5708;50.660;6.778;2023-04-06T11:16:11;20.52;;;10.05;;
11305;SDS011;5708;50.660;6.778;2023-04-06T11:18:36;18.65;;;9.13;;
11305;SDS011;5708;50.660;6.778;2023-04-06T11:21:02;18.75;;;9.38;;
11305;SDS011;5708;50.660;6.778;2023-04-06T11:23:27;19.02;;;9.57;;
11305;SDS011;5708;50.660;6.778;2023-04-06T11:25:53;17.88;;;8.60;;
11305;SDS011;5708;50.660;6.778;2023-04-06T11:28:19;15.40;;;8.15;;
11305;SDS011;5708;50.660;6.778;2023-04-06T11:30:45;16.83;;;9.57;;
11305;SDS011;5708;50.660;6.778;2023-04-06T11:33:10;17.52;;;8.88;;
11305;SDS011;5708;50.660;6.778;2023-04-06T11:35:35;16.43;;;8.73;;
11305;SDS011;5708;50.660;6.778;2023-04-06T11:38:05;14.18;;;8.10;;
11305;SDS011;5708;50.660;6.778;2023-04-06T11:40:30;16.10;;;9.15;;
11305;SDS011;5708;50.660;6.778;2023-04-06T11:42:58;16.23;;;8.82;;
11305;SDS011;5708;50.660;6.778;2023-04-06T11:45:23;17.42;;;8.55;;
11305;SDS011;5708;50.660;6.778;2023-04-06T11:47:55;15.88;;;8.00;;
11305;SDS011;5708;50.660;6.778;2023-04-06T11:50:21;13.38;;;7.55;;
11305;SDS011;5708;50.660;6.778;2023-04-06T11:52:47;14.20;;;8.07;;
11305;SDS011;5708;50.660;6.778;2023-04-06T11:55:22;13.63;;;8.18;;
11305;SDS011;5708;50.660;6.778;2023-04-06T11:57:47;14.13;;;8.07;;
11305;SDS011;5708;50.660;6.778;2023-04-06T12:00:14;17.52;;;8.43;;
11305;SDS011;5708;50.660;6.778;2023-04-06T12:02:39;19.17;;;8.32;;
11305;SDS011;5708;50.660;6.778;2023-04-06T12:05:05;13.40;;;7.85;;
11305;SDS011;5708;50.660;6.778;2023-04-06T12:07:31;13.68;;;8.32;;
11305;SDS011;5708;50.660;6.778;2023-04-06T12:09:56;14.23;;;7.78;;
11305;SDS011;5708;50.660;6.778;2023-04-06T12:12:27;17.05;;;8.52;;
11305;SDS011;5708;50.660;6.778;2023-04-06T12:14:52;13.63;;;8.23;;
11305;SDS011;5708;50.660;6.778;2023-04-06T12:17:18;14.43;;;7.95;;
11305;SDS011;5708;50.660;6.778;2023-04-06T12:19:44;15.73;;;8.35;;
11305;SDS011;5708;50.660;6.778;2023-04-06T12:22:09;13.33;;;7.80;;
11305;SDS011;5708;50.660;6.778;2023-04-06T12:24:34;14.13;;;8.55;;
11305;SDS011;5708;50.660;6.778;2023-04-06T12:27:00;14.90;;;8.40;;
11305;SDS011;5708;50.660;6.778;2023-04-06T12:29:26;14.65;;;7.75;;
11305;SDS011;5708;50.660;6.778;2023-04-06T12:31:51;15.27;;;8.48;;
11305;SDS011;5708;50.660;6.778;2023-04-06T12:34:17;14.85;;;8.10;;
11305;SDS011;5708;50.660;6.778;2023-04-06T12:36:43;15.02;;;8.35;;
11305;SDS011;5708;50.660;6.778;2023-04-06T12:39:08;13.03;;;7.57;;
11305;SDS011;5708;50.660;6.778;2023-04-06T12:41:33;14.30;;;8.27;;
11305;SDS011;5708;50.660;6.778;2023-04-06T12:43:59;15.77;;;8.75;;
11305;SDS011;5708;50.660;6.778;2023-04-06T12:46:24;16.58;;;8.05;;
11305;SDS011;5708;50.660;6.778;2023-04-06T12:48:50;17.87;;;8.40;;
11305;SDS011;5708;50.660;6.778;2023-04-06T12:51:18;16.58;;;8.88;;
11305;SDS011;5708;50.660;6.778;2023-04-06T12:53:43;15.87;;;8.93;;
11305;SDS011;5708;50.660;6.778;2023-04-06T12:56:15;16.15;;;8.82;;
11305;SDS011;5708;50.660;6.778;2023-04-06T12:58:42;17.45;;;9.90;;
11305;SDS011;5708;50.660;6.778;2023-04-06T13:01:07;18.05;;;9.27;;
11305;SDS011;5708;50.660;6.778;2023-04-06T13:03:33;14.00;;;8.10;;
11305;SDS011;5708;50.660;6.778;2023-04-06T13:06:01;13.50;;;7.80;;
11305;SDS011;5708;50.660;6.778;2023-04-06T13:08:27;14.77;;;7.25;;
11305;SDS011;5708;50.660;6.778;2023-04-06T13:10:52;11.88;;;6.95;;
11305;SDS011;5708;50.660;6.778;2023-04-06T13:13:25;15.35;;;7.80;;
11305;SDS011;5708;50.660;6.778;2023-04-06T13:15:51;12.55;;;7.90;;
11305;SDS011;5708;50.660;6.778;2023-04-06T13:18:16;15.20;;;8.40;;
11305;SDS011;5708;50.660;6.778;2023-04-06T13:20:41;16.15;;;8.75;;
11305;SDS011;5708;50.660;6.778;2023-04-06T13:23:07;14.70;;;8.00;;
11305;SDS011;5708;50.660;6.778;2023-04-06T13:25:38;19.17;;;8.07;;
11305;SDS011;5708;50.660;6.778;2023-04-06T13:28:04;14.50;;;8.48;;
11305;SDS011;5708;50.660;6.778;2023-04-06T13:30:29;13.57;;;7.57;;
11305;SDS011;5708;50.660;6.778;2023-04-06T13:32:54;20.42;;;10.15;;
11305;SDS011;5708;50.660;6.778;2023-04-06T13:35:20;13.67;;;7.27;;
11305;SDS011;5708;50.660;6.778;2023-04-06T13:37:45;12.40;;;6.88;;
11305;SDS011;5708;50.660;6.778;2023-04-06T13:40:10;13.03;;;7.13;;
11305;SDS011;5708;50.660;6.778;2023-04-06T13:42:35;13.85;;;7.63;;
11305;SDS011;5708;50.660;6.778;2023-04-06T13:45:01;11.07;;;6.78;;
11305;SDS011;5708;50.660;6.778;2023-04-06T13:47:26;11.77;;;6.55;;
11305;SDS011;5708;50.660;6.778;2023-04-06T13:49:52;11.90;;;7.68;;
11305;SDS011;5708;50.660;6.778;2023-04-06T13:52:18;14.38;;;7.05;;
11305;SDS011;5708;50.660;6.778;2023-04-06T13:54:43;12.88;;;7.68;;
11305;SDS011;5708;50.660;6.778;2023-04-06T13:57:09;12.02;;;6.75;;
11305;SDS011;5708;50.660;6.778;2023-04-06T13:59:34;16.27;;;8.00;;
11305;SDS011;5708;50.660;6.778;2023-04-06T14:02:00;14.75;;;8.18;;
11305;SDS011;5708;50.660;6.778;2023-04-06T14:04:26;13.75;;;7.60;;
11305;SDS011;5708;50.660;6.778;2023-04-06T14:06:51;13.37;;;7.97;;
11305;SDS011;5708;50.660;6.778;2023-04-06T14:09:16;13.47;;;7.80;;
11305;SDS011;5708;50.660;6.778;2023-04-06T14:11:41;14.97;;;8.20;;
11305;SDS011;5708;50.660;6.778;2023-04-06T14:14:06;13.93;;;8.57;;
11305;SDS011;5708;50.660;6.778;2023-04-06T14:16:32;13.80;;;8.07;;
11305;SDS011;5708;50.660;6.778;2023-04-06T14:18:57;15.95;;;9.13;;
11305;SDS011;5708;50.660;6.778;2023-04-06T14:21:23;17.52;;;10.07;;
11305;SDS011;5708;50.660;6.778;2023-04-06T14:23:49;16.77;;;9.45;;
11305;SDS011;5708;50.660;6.778;2023-04-06T14:26:14;20.20;;;9.90;;
11305;SDS011;5708;50.660;6.778;2023-04-06T14:28:40;18.13;;;8.70;;
11305;SDS011;5708;50.660;6.778;2023-04-06T14:31:14;16.67;;;9.85;;
11305;SDS011;5708;50.660;6.778;2023-04-06T14:33:41;16.20;;;9.40;;
11305;SDS011;5708;50.660;6.778;2023-04-06T14:36:06;14.73;;;9.30;;
11305;SDS011;5708;50.660;6.778;2023-04-06T14:38:32;17.63;;;9.77;;